createdAt,value
2022-09-15T00:01:10.688Z,5.07
2022-09-15T00:03:39.779Z,5.65
2022-09-15T00:06:08.031Z,5.68
2022-09-15T00:08:35.829Z,5.20
2022-09-15T00:11:07.245Z,5.63
2022-09-15T00:13:35.439Z,5.38
2022-09-15T00:16:05.642Z,5.82
2022-09-15T00:18:33.210Z,5.28
2022-09-15T00:21:00.744Z,5.43
2022-09-15T00:23:28.271Z,5.00
2022-09-15T00:25:55.675Z,5.40
2022-09-15T00:28:23.890Z,5.15
2022-09-15T00:30:55.883Z,5.03
2022-09-15T00:33:24.736Z,5.18
2022-09-15T00:35:54.125Z,5.00
2022-09-15T00:38:22.122Z,5.30
2022-09-15T00:40:53.442Z,5.70
2022-09-15T00:43:22.462Z,5.85
2022-09-15T00:45:50.634Z,5.85
2022-09-15T00:48:20.494Z,5.65
2022-09-15T00:50:53.290Z,6.13
2022-09-15T00:53:21.262Z,5.85
2022-09-15T00:55:50.708Z,5.82
2022-09-15T00:58:21.548Z,5.70
2022-09-15T01:00:55.372Z,5.68
2022-09-15T01:05:54.736Z,6.38
2022-09-15T01:08:27.038Z,6.28
2022-09-15T01:10:54.467Z,5.88
2022-09-15T01:13:21.927Z,6.57
2022-09-15T01:15:56.340Z,6.38
2022-09-15T01:18:28.105Z,6.93
2022-09-15T01:21:19.815Z,5.82
2022-09-15T01:24:06.300Z,6.40
2022-09-15T01:26:55.277Z,6.93
2022-09-15T01:29:42.442Z,5.82
2022-09-15T01:32:29.002Z,6.90
2022-09-15T01:35:00.633Z,7.68
2022-09-15T01:37:34.040Z,6.70
2022-09-15T01:40:02.322Z,7.50
2022-09-15T01:42:31.072Z,7.72
2022-09-15T01:45:02.297Z,7.10
2022-09-15T01:47:31.081Z,6.97
2022-09-15T01:50:02.070Z,7.45
2022-09-15T01:52:30.094Z,6.50
2022-09-15T01:55:00.409Z,7.03
2022-09-15T01:57:28.342Z,8.15
2022-09-15T01:59:57.225Z,7.03
2022-09-15T02:02:30.047Z,7.60
2022-09-15T02:05:00.965Z,6.93
2022-09-15T02:07:35.578Z,6.75
2022-09-15T02:10:11.581Z,7.90
2022-09-15T02:12:44.568Z,7.47
2022-09-15T02:15:15.021Z,8.10
2022-09-15T02:17:46.352Z,6.95
2022-09-15T02:20:20.182Z,7.25
2022-09-15T02:22:50.355Z,7.47
2022-09-15T02:25:20.372Z,7.25
2022-09-15T02:27:49.843Z,7.60
2022-09-15T02:30:19.627Z,7.50
2022-09-15T02:32:54.149Z,7.20
2022-09-15T02:35:22.177Z,7.50
2022-09-15T02:37:50.103Z,8.00
2022-09-15T02:40:17.520Z,7.70
2022-09-15T02:42:54.114Z,7.13
2022-09-15T02:45:21.589Z,8.00
2022-09-15T02:47:50.519Z,7.40
2022-09-15T02:50:18.076Z,7.60
2022-09-15T02:52:45.733Z,7.20
2022-09-15T02:55:13.658Z,8.27
2022-09-15T02:57:40.971Z,7.50
2022-09-15T03:00:15.689Z,8.63
2022-09-15T03:02:45.387Z,7.50
2022-09-15T03:05:15.379Z,8.07
2022-09-15T03:07:42.796Z,8.10
2022-09-15T03:10:12.407Z,7.50
2022-09-15T03:12:40.165Z,7.80
2022-09-15T03:15:09.568Z,7.47
2022-09-15T03:17:37.208Z,8.30
2022-09-15T03:20:05.489Z,7.70
2022-09-15T03:22:34.236Z,8.13
2022-09-15T03:25:05.428Z,8.35
2022-09-15T03:27:33.005Z,7.72
2022-09-15T03:30:00.361Z,8.98
2022-09-15T03:32:27.705Z,8.18
2022-09-15T03:34:58.366Z,8.05
2022-09-15T03:37:26.188Z,8.32
2022-09-15T03:39:54.883Z,9.00
2022-09-15T03:42:22.314Z,8.05
2022-09-15T03:44:49.671Z,8.82
2022-09-15T03:47:17.295Z,8.02
2022-09-15T03:49:44.671Z,7.68
2022-09-15T03:52:12.137Z,8.35
2022-09-15T03:54:40.030Z,8.18
2022-09-15T03:57:08.683Z,7.53
2022-09-15T03:59:36.002Z,8.45
2022-09-15T04:02:03.506Z,8.30
2022-09-15T04:04:31.989Z,8.05
2022-09-15T04:06:59.344Z,8.85
2022-09-15T04:09:26.810Z,8.15
2022-09-15T04:11:54.145Z,9.27
2022-09-15T04:14:22.808Z,9.65
2022-09-15T04:16:50.147Z,9.00
2022-09-15T04:19:17.519Z,8.75
2022-09-15T04:21:45.658Z,8.45
2022-09-15T04:24:13.314Z,8.82
2022-09-15T04:26:40.655Z,8.52
2022-09-15T04:29:14.225Z,9.15
2022-09-15T04:31:43.044Z,8.45
2022-09-15T04:34:10.459Z,9.05
2022-09-15T04:36:37.907Z,8.98
2022-09-15T04:39:06.452Z,9.13
2022-09-15T04:41:34.513Z,9.13
2022-09-15T04:44:02.151Z,9.38
2022-09-15T04:46:29.533Z,9.57
2022-09-15T04:48:58.240Z,9.63
2022-09-15T04:51:27.122Z,10.05
2022-09-15T04:53:54.467Z,9.77
2022-09-15T04:56:23.118Z,10.02
2022-09-15T04:58:52.643Z,9.68
2022-09-15T05:01:21.637Z,10.10
2022-09-15T05:03:49.465Z,9.77
2022-09-15T05:06:19.435Z,9.65
2022-09-15T05:08:48.217Z,9.68
2022-09-15T05:11:16.021Z,9.65
2022-09-15T05:13:43.826Z,9.40
2022-09-15T05:16:12.959Z,9.93
2022-09-15T05:18:41.085Z,9.23
2022-09-15T05:21:13.446Z,9.25
2022-09-15T05:23:42.642Z,9.32
2022-09-15T05:26:12.765Z,9.73
2022-09-15T05:28:40.358Z,9.57
2022-09-15T05:31:10.234Z,9.63
2022-09-15T05:33:37.936Z,10.02
2022-09-15T05:36:07.127Z,8.75
2022-09-15T05:38:34.614Z,9.02
2022-09-15T05:41:08.209Z,8.85
2022-09-15T05:43:36.845Z,9.27
2022-09-15T05:46:05.465Z,8.15
2022-09-15T05:48:41.684Z,8.35
2022-09-15T05:51:09.237Z,8.45
2022-09-15T05:53:37.631Z,8.00
2022-09-15T05:56:08.338Z,7.45
2022-09-15T05:58:35.844Z,7.30
2022-09-15T06:01:07.944Z,6.90
2022-09-15T06:03:35.815Z,6.80
2022-09-15T06:06:04.483Z,6.32
2022-09-15T06:08:32.796Z,6.22
2022-09-15T06:11:07.274Z,5.60
2022-09-15T06:13:34.829Z,5.72
2022-09-15T06:16:04.249Z,5.40
2022-09-15T06:18:31.886Z,4.80
2022-09-15T06:20:59.654Z,4.60
2022-09-15T06:23:27.079Z,4.80
2022-09-15T06:25:54.888Z,5.05
2022-09-15T06:28:24.598Z,5.50
2022-09-15T06:30:52.213Z,5.53
2022-09-15T06:33:19.679Z,4.43
2022-09-15T06:35:47.126Z,4.28
2022-09-15T06:38:14.765Z,4.00
2022-09-15T06:40:42.313Z,4.18
2022-09-15T06:43:09.815Z,4.28
2022-09-15T06:45:38.790Z,4.22
2022-09-15T06:48:23.563Z,4.32
2022-09-15T06:50:56.050Z,4.20
2022-09-15T06:53:23.954Z,4.20
2022-09-15T06:55:51.787Z,4.00
2022-09-15T06:58:19.736Z,3.88
2022-09-15T07:00:48.729Z,4.00
2022-09-15T07:03:16.421Z,3.60
2022-09-15T07:05:46.264Z,3.63
2022-09-15T07:08:14.386Z,3.40
2022-09-15T07:10:44.241Z,3.72
2022-09-15T07:13:12.058Z,3.35
2022-09-15T07:15:40.227Z,3.15
2022-09-15T07:18:09.351Z,3.20
2022-09-15T07:20:40.828Z,3.03
2022-09-15T07:23:08.390Z,3.25
2022-09-15T07:25:36.190Z,2.92
2022-09-15T07:28:04.451Z,3.28
2022-09-15T07:30:32.018Z,3.20
2022-09-15T07:32:59.762Z,3.05
2022-09-15T07:35:29.119Z,2.65
2022-09-15T07:37:57.141Z,2.72
2022-09-15T07:40:26.658Z,3.17
2022-09-15T07:42:54.605Z,2.97
2022-09-15T07:45:22.521Z,2.55
2022-09-15T07:47:50.379Z,2.95
2022-09-15T07:50:18.312Z,2.40
2022-09-15T07:52:47.334Z,3.00
2022-09-15T07:55:16.941Z,2.60
2022-09-15T07:57:44.685Z,2.38
2022-09-15T08:00:15.005Z,2.80
2022-09-15T08:02:42.614Z,2.90
2022-09-15T08:05:10.705Z,2.40
2022-09-15T08:07:39.989Z,2.28
2022-09-15T08:10:09.863Z,3.30
2022-09-15T08:12:37.824Z,2.78
2022-09-15T08:15:06.531Z,3.03
2022-09-15T08:17:35.370Z,2.67
2022-09-15T08:20:03.609Z,2.40
2022-09-15T08:22:31.226Z,2.33
2022-09-15T08:24:58.889Z,2.20
2022-09-15T08:27:27.931Z,2.50
2022-09-15T08:29:55.548Z,2.78
2022-09-15T08:32:24.292Z,2.45
2022-09-15T08:34:51.984Z,2.47
2022-09-15T08:37:19.530Z,2.35
2022-09-15T08:39:47.267Z,2.30
2022-09-15T08:42:16.593Z,3.30
2022-09-15T08:44:48.816Z,2.00
2022-09-15T08:47:18.410Z,2.13
2022-09-15T08:49:52.948Z,2.20
2022-09-15T08:52:24.393Z,2.50
2022-09-15T08:54:53.454Z,2.20
2022-09-15T08:57:22.937Z,2.17
2022-09-15T08:59:51.669Z,2.10
2022-09-15T09:02:34.921Z,2.17
2022-09-15T09:05:09.437Z,2.22
2022-09-15T09:07:52.123Z,2.20
2022-09-15T09:10:26.496Z,2.65
2022-09-15T09:13:05.639Z,2.10
2022-09-15T09:15:41.969Z,2.20
2022-09-15T09:18:22.351Z,2.55
2022-09-15T09:20:53.602Z,2.03
2022-09-15T09:23:24.685Z,2.33
2022-09-15T09:25:52.560Z,2.25
2022-09-15T09:28:30.060Z,2.63
2022-09-15T09:31:05.568Z,2.13
2022-09-15T09:33:41.862Z,2.13
2022-09-15T09:36:13.116Z,2.58
2022-09-15T09:38:42.194Z,2.20
2022-09-15T09:41:12.950Z,2.25
2022-09-15T09:43:40.465Z,2.40
2022-09-15T09:46:15.112Z,2.53
2022-09-15T09:48:45.368Z,2.03
2022-09-15T09:51:35.493Z,2.03
2022-09-15T09:54:09.844Z,2.30
2022-09-15T09:56:37.194Z,2.33
2022-09-15T09:59:05.020Z,2.17
2022-09-15T10:01:33.760Z,2.00
2022-09-15T10:04:13.267Z,2.35
2022-09-15T10:06:41.115Z,2.88
2022-09-15T10:09:10.900Z,2.30
2022-09-15T10:11:43.262Z,2.13
2022-09-15T10:14:20.076Z,2.08
2022-09-15T10:16:59.214Z,2.10
2022-09-15T10:19:27.256Z,1.88
2022-09-15T10:21:54.769Z,2.30
2022-09-15T10:24:32.322Z,2.05
2022-09-15T10:27:08.268Z,1.80
2022-09-15T10:29:39.589Z,1.95
2022-09-15T10:32:25.451Z,2.10
2022-09-15T10:35:01.183Z,1.80
2022-09-15T10:37:32.495Z,1.75
2022-09-15T10:40:01.716Z,1.77
2022-09-15T10:42:39.067Z,1.80
2022-09-15T10:45:18.288Z,1.92
2022-09-15T10:47:57.296Z,1.42
2022-09-15T10:50:30.428Z,1.92
2022-09-15T10:53:10.573Z,1.40
2022-09-15T10:55:52.619Z,1.60
2022-09-15T10:58:33.629Z,1.88
2022-09-15T11:01:11.857Z,1.55
2022-09-15T11:04:00.503Z,1.50
2022-09-15T11:06:29.607Z,1.85
2022-09-15T11:09:05.850Z,1.55
2022-09-15T11:11:43.268Z,1.40
2022-09-15T11:14:30.177Z,1.55
2022-09-15T11:17:07.204Z,1.40
2022-09-15T11:19:49.747Z,1.40
2022-09-15T11:22:19.520Z,1.50
2022-09-15T11:24:51.245Z,1.23
2022-09-15T11:27:24.122Z,1.50
2022-09-15T11:30:14.569Z,1.35
2022-09-15T11:32:48.517Z,2.20
2022-09-15T11:35:40.056Z,1.60
2022-09-15T11:38:18.087Z,1.35
2022-09-15T11:40:48.150Z,1.90
2022-09-15T11:43:18.865Z,1.30
2022-09-15T11:45:49.051Z,1.60
2022-09-15T11:48:19.478Z,1.58
2022-09-15T11:50:50.796Z,1.55
2022-09-15T11:53:22.931Z,1.60
2022-09-15T11:55:53.742Z,1.40
2022-09-15T11:58:27.139Z,1.45
2022-09-15T12:00:57.200Z,1.67
2022-09-15T12:03:29.834Z,1.02
2022-09-15T12:06:02.277Z,1.30
2022-09-15T12:08:32.828Z,1.50
2022-09-15T12:11:03.419Z,1.17
2022-09-15T12:13:31.521Z,1.00
2022-09-15T12:16:01.642Z,1.80
2022-09-15T12:18:43.733Z,1.70
2022-09-15T12:21:18.544Z,1.38
2022-09-15T12:23:48.709Z,1.42
2022-09-15T12:26:18.232Z,1.25
2022-09-15T12:29:03.739Z,1.23
2022-09-15T12:31:36.732Z,1.60
2022-09-15T12:34:06.995Z,1.30
2022-09-15T12:36:43.877Z,1.75
2022-09-15T12:39:23.259Z,1.42
2022-09-15T12:41:52.116Z,1.50
2022-09-15T12:44:25.991Z,1.40
2022-09-15T12:46:55.434Z,1.63
2022-09-15T12:49:29.359Z,1.40
2022-09-15T12:54:28.193Z,1.45
2022-09-15T12:56:55.828Z,1.38
2022-09-15T12:59:25.673Z,1.48
2022-09-15T13:01:53.888Z,1.77
2022-09-15T13:04:27.983Z,1.60
2022-09-15T13:07:33.535Z,1.20
2022-09-15T13:10:18.719Z,1.40
2022-09-15T13:12:52.193Z,1.80
2022-09-15T13:15:19.900Z,2.08
2022-09-15T13:17:48.144Z,1.73
2022-09-15T13:20:18.501Z,1.52
2022-09-15T13:22:50.831Z,1.65
2022-09-15T13:25:22.615Z,2.00
2022-09-15T13:27:52.847Z,2.00
2022-09-15T13:30:30.988Z,1.52
2022-09-15T13:33:01.869Z,1.60
2022-09-15T13:35:38.961Z,1.90
2022-09-15T13:38:38.976Z,1.65
2022-09-15T13:41:28.045Z,2.10
2022-09-15T13:44:07.186Z,1.60
2022-09-15T13:46:44.959Z,1.80
2022-09-15T13:49:32.795Z,2.15
2022-09-15T13:52:03.855Z,2.00
2022-09-15T13:54:32.995Z,1.70
2022-09-15T13:57:01.181Z,2.00
2022-09-15T13:59:30.590Z,1.50
2022-09-15T14:01:58.855Z,1.70
2022-09-15T14:04:28.706Z,1.33
2022-09-15T14:07:00.766Z,1.60
2022-09-15T14:09:31.106Z,1.10
2022-09-15T14:12:02.338Z,1.55
2022-09-15T14:14:38.914Z,1.70
2022-09-15T14:17:06.855Z,1.65
2022-09-15T14:19:36.260Z,1.48
2022-09-15T14:22:25.996Z,1.40
2022-09-15T14:24:53.941Z,1.25
2022-09-15T14:27:24.870Z,1.50
2022-09-15T14:29:55.198Z,3.97
2022-09-15T14:32:22.698Z,1.55
2022-09-15T14:34:50.866Z,1.75
2022-09-15T14:37:21.416Z,1.20
2022-09-15T14:39:56.462Z,1.00
2022-09-15T14:42:30.417Z,1.30
2022-09-15T14:48:00.127Z,1.45
2022-09-15T14:50:32.329Z,1.60
2022-09-15T14:53:03.789Z,1.33
2022-09-15T14:55:35.647Z,1.60
2022-09-15T14:58:06.193Z,3.17
2022-09-15T15:00:38.709Z,1.40
2022-09-15T15:03:18.359Z,1.45
2022-09-15T15:05:47.686Z,1.38
2022-09-15T15:08:23.501Z,1.20
2022-09-15T15:10:50.869Z,1.17
2022-09-15T15:13:19.918Z,1.50
2022-09-15T15:15:47.381Z,1.25
2022-09-15T15:18:32.814Z,1.52
2022-09-15T15:21:00.304Z,1.05
2022-09-15T15:23:28.631Z,1.40
2022-09-15T15:26:26.985Z,1.13
2022-09-15T15:28:54.325Z,1.30
2022-09-15T15:31:23.246Z,1.80
2022-09-15T15:33:53.373Z,1.35
2022-09-15T15:36:22.360Z,1.00
2022-09-15T15:38:52.505Z,1.10
2022-09-15T15:41:22.488Z,1.27
2022-09-15T15:44:03.283Z,1.05
2022-09-15T15:46:52.608Z,5.43
2022-09-15T15:49:21.543Z,1.67
2022-09-15T15:51:48.970Z,1.98
2022-09-15T15:54:16.453Z,1.20
2022-09-15T15:56:43.979Z,1.70
2022-09-15T15:59:14.777Z,1.30
2022-09-15T16:01:42.358Z,1.23
2022-09-15T16:04:12.041Z,1.38
2022-09-15T16:06:39.813Z,1.70
2022-09-15T16:09:07.551Z,1.33
2022-09-15T16:11:35.012Z,1.33
2022-09-15T16:14:02.352Z,1.20
2022-09-15T16:16:31.065Z,1.10
2022-09-15T16:18:58.803Z,1.00
2022-09-15T16:21:29.632Z,1.15
2022-09-15T16:23:56.984Z,1.02
2022-09-15T16:26:25.210Z,0.93
2022-09-15T16:28:52.760Z,1.30
2022-09-15T16:31:20.277Z,8.63
2022-09-15T16:33:48.975Z,1.23
2022-09-15T16:36:18.040Z,1.50
2022-09-15T16:38:45.765Z,1.30
2022-09-15T16:41:14.756Z,1.30
2022-09-15T16:43:42.447Z,1.20
2022-09-15T16:46:10.760Z,0.90
2022-09-15T16:48:38.504Z,2.10
2022-09-15T16:51:27.404Z,2.00
2022-09-15T16:53:58.113Z,1.35
2022-09-15T16:56:25.717Z,1.45
2022-09-15T16:58:58.944Z,1.10
2022-09-15T17:01:27.551Z,1.38
2022-09-15T17:03:55.779Z,1.23
2022-09-15T17:06:24.758Z,1.40
2022-09-15T17:08:52.115Z,1.20
2022-09-15T17:11:22.096Z,1.30
2022-09-15T17:13:49.427Z,1.55
2022-09-15T17:16:19.605Z,1.40
2022-09-15T17:18:47.291Z,8.52
2022-09-15T17:21:16.239Z,1.10
2022-09-15T17:23:46.693Z,1.38
2022-09-15T17:26:17.868Z,1.35
2022-09-15T17:28:45.335Z,1.30
2022-09-15T17:31:14.681Z,1.30
2022-09-15T17:33:42.411Z,1.42
2022-09-15T17:36:09.849Z,1.33
2022-09-15T17:38:37.205Z,1.67
2022-09-15T17:41:05.928Z,1.58
2022-09-15T17:43:33.267Z,0.90
2022-09-15T17:46:01.429Z,0.85
2022-09-15T17:48:28.766Z,3.65
2022-09-15T17:50:56.139Z,1.35
2022-09-15T17:53:26.550Z,1.00
2022-09-15T17:55:55.228Z,1.10
2022-09-15T17:58:24.728Z,1.55
2022-09-15T18:00:52.262Z,1.23
2022-09-15T18:03:23.693Z,1.48
2022-09-15T18:05:51.635Z,1.60
2022-09-15T18:08:19.000Z,1.27
2022-09-15T18:10:46.446Z,1.20
2022-09-15T18:13:16.370Z,1.13
2022-09-15T18:15:45.372Z,1.60
2022-09-15T18:18:14.913Z,1.30
2022-09-15T18:20:42.803Z,1.40
2022-09-15T18:23:14.880Z,2.00
2022-09-15T18:25:42.732Z,1.45
2022-09-15T18:28:10.225Z,2.70
2022-09-15T18:30:40.496Z,8.10
2022-09-15T18:33:13.946Z,1.30
2022-09-15T18:35:41.569Z,1.65
2022-09-15T18:38:09.419Z,1.40
2022-09-15T18:40:36.800Z,1.33
2022-09-15T18:43:05.479Z,1.70
2022-09-15T18:45:32.816Z,1.65
2022-09-15T18:48:00.147Z,1.73
2022-09-15T18:50:28.820Z,1.30
2022-09-15T18:52:56.153Z,1.40
2022-09-15T18:55:24.754Z,1.70
2022-09-15T18:57:52.892Z,1.25
2022-09-15T19:00:22.461Z,1.55
2022-09-15T19:02:49.856Z,1.45
2022-09-15T19:05:17.681Z,1.50
2022-09-15T19:07:46.712Z,1.45
2022-09-15T19:10:16.142Z,1.30
2022-09-15T19:12:43.842Z,1.50
2022-09-15T19:15:12.497Z,1.50
2022-09-15T19:17:40.482Z,1.90
2022-09-15T19:20:09.809Z,1.60
2022-09-15T19:22:37.644Z,2.05
2022-09-15T19:25:07.688Z,2.00
2022-09-15T19:27:35.222Z,1.48
2022-09-15T19:30:02.757Z,1.83
2022-09-15T19:32:30.168Z,1.77
2022-09-15T19:34:57.536Z,1.52
2022-09-15T19:37:24.893Z,1.73
2022-09-15T19:39:52.336Z,2.55
2022-09-15T19:42:21.142Z,2.13
2022-09-15T19:44:49.394Z,1.70
2022-09-15T19:47:16.939Z,1.65
2022-09-15T19:49:44.305Z,2.05
2022-09-15T19:52:12.728Z,1.50
2022-09-15T19:54:40.100Z,1.70
2022-09-15T19:57:07.463Z,1.58
2022-09-15T19:59:36.338Z,1.58
2022-09-15T20:02:04.027Z,1.80
2022-09-15T20:04:31.476Z,1.92
2022-09-15T20:06:59.023Z,1.75
2022-09-15T20:09:26.480Z,1.88
2022-09-15T20:11:54.121Z,1.67
2022-09-15T20:14:21.466Z,1.70
2022-09-15T20:16:50.244Z,1.60
2022-09-15T20:19:17.702Z,1.73
2022-09-15T20:21:51.496Z,2.22
2022-09-15T20:24:20.473Z,2.00
2022-09-15T20:26:48.093Z,2.00
2022-09-15T20:29:15.442Z,1.80
2022-09-15T20:31:42.836Z,1.90
2022-09-15T20:34:11.611Z,1.90
2022-09-15T20:36:39.292Z,2.20
2022-09-15T20:39:09.191Z,1.63
2022-09-15T20:41:36.920Z,1.65
2022-09-15T20:44:05.905Z,1.92
2022-09-15T20:46:33.444Z,1.80
2022-09-15T20:49:01.358Z,1.85
2022-09-15T20:51:31.701Z,2.00
2022-09-15T20:54:00.390Z,1.75
2022-09-15T20:56:29.223Z,2.05
2022-09-15T20:58:58.378Z,2.00
2022-09-15T21:01:27.875Z,1.80
2022-09-15T21:03:55.826Z,1.60
2022-09-15T21:06:25.530Z,2.17
2022-09-15T21:08:55.517Z,2.58
2022-09-15T21:11:23.866Z,1.90
2022-09-15T21:13:51.378Z,2.10
2022-09-15T21:16:20.434Z,1.80
2022-09-15T21:18:48.504Z,1.75
2022-09-15T21:21:17.322Z,1.88
2022-09-15T21:23:45.729Z,1.90
2022-09-15T21:26:15.872Z,2.10
2022-09-15T21:28:43.583Z,1.77
2022-09-15T21:31:13.026Z,1.98
2022-09-15T21:33:40.645Z,2.05
2022-09-15T21:36:10.171Z,1.90
2022-09-15T21:38:40.323Z,1.70
2022-09-15T21:41:08.866Z,1.58
2022-09-15T21:43:39.252Z,2.05
2022-09-15T21:46:08.408Z,1.70
2022-09-15T21:48:36.391Z,1.50
2022-09-15T21:51:05.188Z,1.60
2022-09-15T21:53:32.652Z,2.00
2022-09-15T21:56:01.651Z,1.83
2022-09-15T21:58:36.868Z,1.30
2022-09-15T22:01:12.587Z,1.85
2022-09-15T22:03:42.114Z,1.75
2022-09-15T22:06:10.796Z,1.35
2022-09-15T22:08:38.376Z,1.45
2022-09-15T22:11:06.215Z,1.20
2022-09-15T22:13:33.592Z,1.65
2022-09-15T22:16:02.127Z,1.50
2022-09-15T22:18:30.892Z,1.45
2022-09-15T22:21:06.531Z,1.45
2022-09-15T22:23:33.918Z,1.33
2022-09-15T22:26:02.827Z,1.40
2022-09-15T22:28:30.175Z,1.33
2022-09-15T22:30:58.849Z,1.50
2022-09-15T22:33:26.245Z,1.40
2022-09-15T22:35:55.069Z,1.35
2022-09-15T22:38:22.701Z,1.75
2022-09-15T22:40:50.046Z,1.50
2022-09-15T22:43:17.388Z,1.58
2022-09-15T22:45:44.842Z,1.50
2022-09-15T22:48:12.196Z,1.50
2022-09-15T22:50:39.541Z,1.30
2022-09-15T22:53:08.503Z,1.27
2022-09-15T22:55:35.837Z,1.88
2022-09-15T22:58:03.224Z,1.65
2022-09-15T23:00:31.473Z,1.50
2022-09-15T23:02:58.899Z,1.40
2022-09-15T23:05:26.247Z,1.40
2022-09-15T23:07:53.597Z,1.52
2022-09-15T23:10:22.306Z,1.48
2022-09-15T23:12:49.796Z,1.70
2022-09-15T23:15:17.781Z,2.10
2022-09-15T23:17:45.311Z,1.40
2022-09-15T23:20:12.818Z,1.48
2022-09-15T23:22:40.445Z,1.40
2022-09-15T23:25:08.529Z,1.70
2022-09-15T23:27:37.207Z,1.52
2022-09-15T23:30:05.279Z,1.42
2022-09-15T23:32:32.634Z,1.52
2022-09-15T23:34:59.981Z,1.40
2022-09-15T23:37:27.339Z,1.67
2022-09-15T23:39:54.745Z,1.73
2022-09-15T23:42:22.132Z,1.45
2022-09-15T23:44:50.869Z,1.80
2022-09-15T23:47:18.234Z,1.52
2022-09-15T23:49:45.584Z,1.88
2022-09-15T23:52:12.906Z,1.60
2022-09-15T23:54:40.368Z,1.30
2022-09-15T23:57:08.768Z,1.80
2022-09-15T23:59:36.101Z,1.92
